Time;durP1;ratioP1;P1;durP2;ratioP2;P2;SDS_P1;SDS_P2;PMS_P1;PMS_P2;Temp;Humidity;BMP_temperature;BMP_pressure;BME280_temperature;BME280_humidity;BME280_pressure;Samples;Min_cycle;Max_cycle;Signal;HPM_P1;HPM_P2
2021/05/25 00:00:24;;;;;;;10.90;6.77;;;;;;;18.57;59.34;100527.25;2070373;28;20057;-67
2021/05/25 00:01:25;;;;;;;10.10;7.18;;;;;;;18.58;59.32;100529.00;2061503;28;20486;-67
2021/05/25 00:02:25;;;;;;;9.93;6.97;;;;;;;18.55;59.06;100519.19;2060335;28;20792;-67
2021/05/25 00:03:26;;;;;;;8.50;6.57;;;;;;;18.57;59.23;100532.69;2070802;28;20034;-66
2021/05/25 00:04:26;;;;;;;10.10;6.63;;;;;;;18.56;59.04;100531.84;2068841;28;20036;-67
2021/05/25 00:05:30;;;;;;;10.33;6.97;;;;;;;18.57;59.31;100532.69;2070021;28;20075;-67
2021/05/25 00:06:30;;;;;;;10.60;7.35;;;;;;;18.57;59.00;100535.44;2067412;28;20570;-67
2021/05/25 00:07:31;;;;;;;9.90;6.60;;;;;;;18.57;59.09;100535.44;2069093;28;20285;-67
2021/05/25 00:08:31;;;;;;;10.07;7.23;;;;;;;18.56;59.17;100529.13;2062244;28;20030;-67
2021/05/25 00:09:32;;;;;;;9.23;6.90;;;;;;;18.55;59.16;100534.72;2066310;28;20132;-67
2021/05/25 00:10:32;;;;;;;9.50;7.10;;;;;;;18.55;59.33;100523.81;2070621;28;20025;-67
2021/05/25 00:11:33;;;;;;;10.97;6.60;;;;;;;18.55;59.21;100526.53;2065030;28;20375;-67
2021/05/25 00:12:34;;;;;;;9.37;6.87;;;;;;;18.56;59.25;100530.97;2063620;28;20030;-67
2021/05/25 00:13:35;;;;;;;10.15;6.70;;;;;;;18.55;59.26;100532.00;2070221;28;20037;-67
2021/05/25 00:14:35;;;;;;;10.73;6.40;;;;;;;18.55;59.16;100524.66;2069285;28;20030;-67
2021/05/25 00:15:36;;;;;;;9.97;6.50;;;;;;;18.56;59.24;100530.97;2069781;28;20037;-67
2021/05/25 00:16:37;;;;;;;9.93;6.33;;;;;;;18.54;59.23;100524.78;2067919;28;20034;-67
2021/05/25 00:17:38;;;;;;;9.68;6.60;;;;;;;18.55;59.30;100530.13;2070371;28;20026;-67
2021/05/25 00:18:39;;;;;;;9.23;6.67;;;;;;;18.55;59.27;100534.72;2069231;28;20030;-67
2021/05/25 00:19:39;;;;;;;9.50;6.70;;;;;;;18.55;59.31;100534.72;2069984;28;20115;-67
2021/05/25 00:20:40;;;;;;;12.07;7.30;;;;;;;18.55;59.29;100529.28;2070190;28;20022;-67
2021/05/25 00:21:40;;;;;;;9.47;6.40;;;;;;;18.54;59.00;100528.38;2068680;28;20072;-67
2021/05/25 00:22:41;;;;;;;11.50;7.20;;;;;;;18.54;59.19;100532.97;2070089;28;20546;-67
2021/05/25 00:23:42;;;;;;;9.47;7.27;;;;;;;18.55;59.19;100532.00;2070553;28;20653;-67
2021/05/25 00:24:42;;;;;;;11.47;6.80;;;;;;;18.55;59.19;100529.28;2067859;28;20028;-67
2021/05/25 00:25:43;;;;;;;7.97;6.90;;;;;;;18.55;59.10;100534.72;2078712;28;20672;-67
2021/05/25 00:26:44;;;;;;;11.43;7.03;;;;;;;18.55;59.15;100532.00;2079871;28;20720;-67
2021/05/25 00:27:46;;;;;;;10.93;7.13;;;;;;;18.55;59.04;100530.13;2078700;28;20681;-67
2021/05/25 00:28:46;;;;;;;11.13;7.78;;;;;;;18.56;59.04;100530.97;2074816;28;20030;-67
2021/05/25 00:29:46;;;;;;;12.60;7.57;;;;;;;18.55;59.16;100534.72;2077016;28;20078;-67
2021/05/25 00:30:47;;;;;;;10.23;7.47;;;;;;;18.57;59.14;100532.69;2072203;28;20127;-67
2021/05/25 00:32:31;;;;;;;8.77;6.43;;;;;;;18.53;59.25;100532.13;2074240;28;20033;-67
2021/05/25 00:33:31;;;;;;;;;;;;;;;18.48;59.35;100536.25;2079564;28;20020;-67
2021/05/25 00:34:32;;;;;;;9.77;6.20;;;;;;;18.48;59.15;100525.34;2078919;28;20372;-67
2021/05/25 00:35:36;;;;;;;9.47;7.57;;;;;;;18.48;59.22;100534.41;2067240;28;20026;-67
2021/05/25 00:36:36;;;;;;;9.23;6.05;;;;;;;18.51;59.33;100544.19;2070034;28;20029;-67
2021/05/25 00:37:37;;;;;;;8.93;6.10;;;;;;;18.51;59.31;100538.72;2078646;28;20033;-67
2021/05/25 00:38:38;;;;;;;11.50;6.45;;;;;;;18.50;59.24;100531.53;2077646;28;20144;-67
2021/05/25 00:39:38;;;;;;;8.53;6.63;;;;;;;18.52;59.23;100532.25;2075059;28;20052;-67
2021/05/25 00:40:40;;;;;;;9.87;6.50;;;;;;;18.52;59.11;100532.25;2072386;28;20220;-67
2021/05/25 00:41:40;;;;;;;10.07;6.97;;;;;;;18.51;59.20;100533.25;2073648;28;20442;-67
2021/05/25 00:42:50;;;;;;;11.47;6.40;;;;;;;18.51;59.01;100538.72;2076467;28;20033;-67
2021/05/25 00:43:50;;;;;;;10.35;6.40;;;;;;;18.52;59.23;100540.44;2077280;28;20024;-67
2021/05/25 00:44:51;;;;;;;9.43;6.70;;;;;;;18.52;59.18;100535.88;2077249;28;20029;-67
2021/05/25 00:45:52;;;;;;;10.30;6.55;;;;;;;18.52;59.19;100543.16;2079820;28;20074;-67
2021/05/25 00:46:52;;;;;;;8.47;6.23;;;;;;;18.52;59.02;100541.31;2078035;28;20033;-67
2021/05/25 00:47:53;;;;;;;10.40;6.73;;;;;;;18.52;59.19;100541.31;2076905;28;20024;-67
2021/05/25 00:48:53;;;;;;;11.93;7.00;;;;;;;18.52;59.21;100532.25;2077374;28;20040;-67
2021/05/25 00:49:54;;;;;;;9.90;6.30;;;;;;;18.50;59.33;100526.94;2079006;28;20064;-67
2021/05/25 00:50:55;;;;;;;9.27;7.20;;;;;;;18.53;59.10;100531.25;2068601;28;20033;-67
2021/05/25 00:51:56;;;;;;;9.90;6.80;;;;;;;18.52;59.19;100526.78;2068372;28;20025;-67
2021/05/25 00:53:00;;;;;;;9.33;6.40;;;;;;;18.51;59.07;100531.38;2078452;28;20033;-67
2021/05/25 00:54:02;;;;;;;8.57;6.20;;;;;;;18.53;58.99;100531.25;2072367;28;20496;-67
2021/05/25 00:55:05;;;;;;;10.43;6.57;;;;;;;18.53;59.13;100531.25;2077313;28;20112;-67
2021/05/25 00:56:06;;;;;;;11.68;6.50;;;;;;;18.52;59.17;100527.69;2076295;28;20523;-67
2021/05/25 00:57:06;;;;;;;8.60;5.73;;;;;;;18.51;59.14;100525.94;2069181;28;20784;-67
2021/05/25 00:58:10;;;;;;;9.00;5.67;;;;;;;18.51;59.10;100528.66;2073204;28;20037;-67
2021/05/25 00:59:10;;;;;;;8.35;6.05;;;;;;;18.50;59.13;100524.22;2078111;28;20112;-67
2021/05/25 01:00:13;;;;;;;9.17;6.00;;;;;;;18.51;59.06;100525.94;2069285;28;20534;-67
2021/05/25 01:01:13;;;;;;;9.27;6.05;;;;;;;18.52;59.03;100524.94;2070085;28;20030;-67
2021/05/25 01:02:13;;;;;;;8.77;6.17;;;;;;;18.50;58.97;100524.22;2083411;28;20559;-67
2021/05/25 01:03:23;;;;;;;7.40;6.03;;;;;;;18.50;58.95;100520.63;2074097;28;20025;-67
2021/05/25 01:04:24;;;;;;;8.75;6.07;;;;;;;18.51;59.13;100527.78;2074423;28;20037;-67
2021/05/25 01:05:24;;;;;;;7.47;5.90;;;;;;;18.53;59.00;100528.53;2075044;28;20040;-67
2021/05/25 01:06:25;;;;;;;10.10;7.10;;;;;;;18.51;59.03;100525.06;2069454;28;20037;-67
2021/05/25 01:07:26;;;;;;;8.70;5.97;;;;;;;18.51;59.03;100527.78;2071233;28;20501;-67
2021/05/25 01:08:27;;;;;;;7.77;5.70;;;;;;;18.51;59.03;100530.53;2077726;28;20038;-67
2021/05/25 01:09:30;;;;;;;11.73;6.87;;;;;;;18.50;58.96;100526.09;2068546;28;20956;-67
2021/05/25 01:10:34;;;;;;;9.10;6.45;;;;;;;18.51;59.07;100528.66;2069152;28;20049;-67
2021/05/25 01:11:38;;;;;;;9.48;6.35;;;;;;;18.50;59.02;100526.94;2077490;28;20048;-67
2021/05/25 01:12:49;;;;;;;9.10;6.45;;;;;;;18.50;58.97;100526.09;2080110;28;20025;-67
2021/05/25 01:13:55;;;;;;;12.13;6.93;;;;;;;18.49;59.08;100525.19;2070868;28;20026;-67
2021/05/25 01:15:02;;;;;;;8.68;6.05;;;;;;;18.49;59.21;100529.78;2074013;28;20471;-67
2021/05/25 01:16:03;;;;;;;10.10;6.05;;;;;;;18.51;59.00;100533.25;2080488;28;20025;-67
2021/05/25 01:17:03;;;;;;;9.87;6.20;;;;;;;18.50;58.98;100543.31;2079626;28;20041;-67
2021/05/25 01:18:19;;;;;;;7.73;6.83;;;;;;;18.49;59.20;100540.72;2079041;28;20362;-67
2021/05/25 01:19:20;;;;;;;8.30;6.20;;;;;;;18.50;59.06;100537.84;2073094;28;20030;-67
2021/05/25 01:20:23;;;;;;;7.57;5.63;;;;;;;18.50;58.99;100542.47;2079314;28;20021;-67
2021/05/25 01:21:26;;;;;;;8.52;5.82;;;;;;;18.50;59.04;100537.00;2071632;28;20026;-67
2021/05/25 01:22:29;;;;;;;9.57;5.68;;;;;;;18.49;59.03;100537.97;2074704;28;20040;-67
2021/05/25 01:23:31;;;;;;;8.18;5.90;;;;;;;18.49;59.00;100530.66;2075623;28;20022;-67
2021/05/25 01:24:32;;;;;;;9.02;5.78;;;;;;;18.49;58.97;100537.97;2073604;28;20058;-67
2021/05/25 01:25:33;;;;;;;7.95;6.22;;;;;;;18.49;58.89;100535.25;2075715;28;20392;-67
2021/05/25 01:26:34;;;;;;;8.90;6.47;;;;;;;18.49;59.08;100536.09;2078250;28;20022;-67
2021/05/25 01:27:34;;;;;;;7.73;5.70;;;;;;;18.48;59.22;100528.06;2076863;28;20122;-67
2021/05/25 01:28:35;;;;;;;9.37;5.97;;;;;;;18.49;59.00;100529.78;2076058;28;20555;-68
2021/05/25 01:29:37;;;;;;;7.97;5.67;;;;;;;18.49;58.84;100535.25;2077220;28;20029;-67
2021/05/25 01:30:41;;;;;;;10.10;6.13;;;;;;;18.48;58.95;100530.81;2077202;28;20025;-67
2021/05/25 01:31:41;;;;;;;8.02;6.03;;;;;;;18.49;58.99;100536.09;2077682;28;20102;-67
2021/05/25 01:32:42;;;;;;;10.17;5.83;;;;;;;18.50;59.04;100531.53;2072609;28;20064;-67
2021/05/25 01:33:43;;;;;;;8.50;5.50;;;;;;;18.49;59.02;100525.19;2080499;28;20047;-67
2021/05/25 01:34:44;;;;;;;8.35;5.63;;;;;;;18.49;59.07;100535.25;2078867;28;20794;-67
2021/05/25 01:35:45;;;;;;;8.33;5.67;;;;;;;18.47;58.96;100540.88;2068531;28;20490;-67
2021/05/25 01:36:46;;;;;;;9.17;5.77;;;;;;;18.48;58.91;100539.00;2062416;28;20521;-67
2021/05/25 01:37:47;;;;;;;7.07;5.17;;;;;;;18.48;58.93;100541.72;2068895;28;20116;-67
2021/05/25 01:38:48;;;;;;;6.97;5.60;;;;;;;18.48;59.08;100539.00;2078555;28;20038;-67
2021/05/25 01:39:53;;;;;;;10.47;6.23;;;;;;;18.49;59.01;100543.44;2078002;28;20033;-67
2021/05/25 01:40:56;;;;;;;7.93;5.70;;;;;;;18.49;59.16;100535.25;2077625;28;20030;-67
2021/05/25 01:41:56;;;;;;;8.52;5.97;;;;;;;18.48;59.05;100544.47;2085773;28;20032;-67
2021/05/25 01:42:57;;;;;;;7.50;5.40;;;;;;;18.48;58.75;100539.00;2076754;28;20061;-67
2021/05/25 01:43:58;;;;;;;8.93;6.22;;;;;;;18.48;58.91;100545.31;2081391;28;20040;-67
2021/05/25 01:44:59;;;;;;;7.97;6.10;;;;;;;18.48;59.00;100542.59;2088362;28;20036;-67
2021/05/25 01:46:01;;;;;;;10.07;6.75;;;;;;;18.48;59.12;100541.72;2080924;28;20037;-67
2021/05/25 01:47:02;;;;;;;9.15;5.82;;;;;;;18.48;58.88;100539.00;2080000;28;20041;-67
2021/05/25 01:48:05;;;;;;;9.40;5.53;;;;;;;18.48;59.07;100544.47;2078984;28;20021;-67
2021/05/25 01:49:05;;;;;;;7.85;5.72;;;;;;;18.48;59.06;100539.84;2079018;28;20465;-67
2021/05/25 01:50:13;;;;;;;7.87;6.03;;;;;;;18.47;59.10;100545.44;2071187;28;20113;-67
2021/05/25 01:51:14;;;;;;;9.95;6.18;;;;;;;18.46;59.04;100541.00;2062200;28;20034;-67
2021/05/25 01:52:17;;;;;;;8.53;5.53;;;;;;;18.45;58.96;100540.13;2070333;28;20129;-67
2021/05/25 01:53:24;;;;;;;10.20;6.03;;;;;;;18.45;59.07;100540.13;2085612;28;20035;-67
2021/05/25 01:54:24;;;;;;;8.60;6.72;;;;;;;18.46;59.15;100547.31;2082128;28;20848;-67
2021/05/25 01:55:41;;;;;;;8.97;6.17;;;;;;;18.45;59.13;100544.69;2079961;28;20443;-67
2021/05/25 01:56:42;;;;;;;9.73;5.47;;;;;;;18.43;59.04;100540.25;2084300;28;20079;-64
2021/05/25 01:57:42;;;;;;;7.27;5.47;;;;;;;18.46;59.02;100546.44;2082503;28;20030;-64
2021/05/25 01:58:43;;;;;;;7.27;5.67;;;;;;;18.46;58.94;100546.44;2082296;28;20073;-64
2021/05/25 01:59:44;;;;;;;8.57;6.27;;;;;;;18.46;58.96;100546.44;2081260;28;20025;-64
2021/05/25 02:00:49;;;;;;;9.53;6.27;;;;;;;18.45;59.02;100551.06;2081072;28;20538;-63
2021/05/25 02:01:50;;;;;;;7.25;4.72;;;;;;;18.45;58.99;100548.31;2082891;28;20028;-63
2021/05/25 02:02:51;;;;;;;9.43;5.77;;;;;;;18.46;59.03;100549.19;2081611;28;20022;-63
2021/05/25 02:03:51;;;;;;;7.37;5.37;;;;;;;18.45;59.17;100548.31;2084273;28;20021;-64
2021/05/25 02:04:52;;;;;;;8.50;5.37;;;;;;;18.45;58.96;100547.44;2081974;28;20506;-64
2021/05/25 02:05:52;;;;;;;8.67;5.77;;;;;;;18.45;59.09;100544.69;2084599;28;20021;-63
2021/05/25 02:06:53;;;;;;;8.20;5.57;;;;;;;18.45;58.95;100545.59;2084491;28;20021;-64
2021/05/25 02:07:54;;;;;;;7.70;5.65;;;;;;;18.44;58.98;100543.84;2081607;28;20021;-63
2021/05/25 02:08:56;;;;;;;8.50;5.13;;;;;;;18.45;58.91;100550.16;2081003;28;20063;-64
2021/05/25 02:09:57;;;;;;;9.27;5.70;;;;;;;18.45;59.09;100544.69;2085927;28;20540;-64
2021/05/25 02:11:00;;;;;;;8.27;5.60;;;;;;;18.45;58.90;100547.44;2073902;28;20087;-64
2021/05/25 02:12:01;;;;;;;6.43;4.82;;;;;;;18.44;59.05;100538.38;2074176;28;20137;-64
2021/05/25 02:13:15;;;;;;;7.90;5.40;;;;;;;18.43;59.12;100542.97;2081197;28;20033;-64
2021/05/25 02:14:16;;;;;;;7.78;5.28;;;;;;;18.43;58.97;100542.97;2081543;28;20017;-64
2021/05/25 02:15:17;;;;;;;11.43;5.67;;;;;;;18.41;58.92;100536.78;2081335;28;20029;-64
2021/05/25 02:16:18;;;;;;;7.25;5.10;;;;;;;18.42;59.03;100541.28;2081432;28;20040;-64
2021/05/25 02:17:19;;;;;;;8.53;5.53;;;;;;;18.42;59.05;100538.53;2081413;28;20063;-63
2021/05/25 02:18:26;;;;;;;10.23;6.27;;;;;;;18.42;58.94;100541.28;2082487;28;20724;-63
2021/05/25 02:19:27;;;;;;;6.45;5.20;;;;;;;18.42;59.03;100538.53;2081293;28;20036;-64
2021/05/25 02:20:27;;;;;;;7.65;5.70;;;;;;;18.42;59.02;100541.28;2072921;28;20029;-63
2021/05/25 02:21:40;;;;;;;7.53;5.33;;;;;;;18.41;59.08;100544.97;2072517;28;20084;-63
2021/05/25 02:22:40;;;;;;;8.52;5.25;;;;;;;18.43;58.97;100547.59;2073494;28;20480;-64
2021/05/25 02:23:41;;;;;;;8.73;5.50;;;;;;;18.43;59.04;100542.97;2072822;28;20582;-64
2021/05/25 02:24:42;;;;;;;8.38;5.20;;;;;;;18.43;58.96;100548.44;2072907;28;20036;-63
2021/05/25 02:25:43;;;;;;;8.27;5.10;;;;;;;18.42;59.01;100546.72;2073455;28;20040;-63
2021/05/25 02:26:43;;;;;;;7.32;5.45;;;;;;;18.44;58.87;100549.31;2078320;28;20036;-64
2021/05/25 02:27:44;;;;;;;6.77;5.10;;;;;;;18.43;58.98;100544.84;2081771;28;20068;-64
2021/05/25 02:28:44;;;;;;;8.87;5.33;;;;;;;18.41;58.92;100544.97;2070599;28;20536;-63
2021/05/25 02:29:45;;;;;;;10.97;5.80;;;;;;;18.43;59.05;100547.59;2073054;28;20040;-63
2021/05/25 02:30:46;;;;;;;6.80;5.40;;;;;;;18.42;59.10;100552.19;2073665;28;20037;-63
2021/05/25 02:31:46;;;;;;;6.80;5.35;;;;;;;18.43;58.92;100544.84;2073115;28;20045;-64
2021/05/25 02:32:47;;;;;;;7.87;5.43;;;;;;;18.43;59.02;100547.59;2064617;28;20065;-63
2021/05/25 02:33:47;;;;;;;9.63;5.70;;;;;;;18.43;59.02;100551.19;2068319;28;20026;-63
2021/05/25 02:34:48;;;;;;;8.50;4.63;;;;;;;18.43;58.94;100553.91;2074688;28;20046;-64
2021/05/25 02:35:52;;;;;;;9.93;6.57;;;;;;;18.41;58.89;100553.16;2081246;28;20043;-62
2021/05/25 02:36:53;;;;;;;8.65;6.03;;;;;;;18.42;59.05;100556.75;2076149;28;20523;-64
2021/05/25 02:37:54;;;;;;;9.13;6.17;;;;;;;18.44;59.00;100565.69;2073481;28;20396;-64
2021/05/25 02:38:54;;;;;;;11.27;6.45;;;;;;;18.43;58.91;100566.69;2069764;28;20026;-64
2021/05/25 02:39:55;;;;;;;7.63;5.57;;;;;;;18.42;58.98;100560.38;2072402;28;20030;-63
2021/05/25 02:40:56;;;;;;;7.80;5.60;;;;;;;18.42;58.85;100563.09;2078272;28;20087;-64
2021/05/25 02:41:56;;;;;;;7.20;5.03;;;;;;;18.43;58.86;100559.38;2077201;28;20030;-63
2021/05/25 02:43:04;;;;;;;7.40;4.57;;;;;;;18.42;58.92;100562.22;2080842;28;20029;-64
2021/05/25 02:44:05;;;;;;;6.85;5.38;;;;;;;18.43;58.91;100566.69;2067855;28;20026;-64
2021/05/25 02:45:07;;;;;;;9.70;5.77;;;;;;;18.42;58.95;100568.56;2066489;28;20034;-64
2021/05/25 02:46:07;;;;;;;9.38;5.32;;;;;;;18.41;59.03;100572.28;2076002;28;20530;-63
2021/05/25 02:47:07;;;;;;;10.13;5.93;;;;;;;18.40;59.11;100565.09;2075288;28;20372;-64
2021/05/25 02:48:08;;;;;;;6.57;5.30;;;;;;;18.41;59.01;100569.53;2069281;28;20108;-63
2021/05/25 02:49:09;;;;;;;6.77;5.40;;;;;;;18.41;58.81;100575.00;2072467;28;20520;-63
2021/05/25 02:50:10;;;;;;;8.73;6.03;;;;;;;18.41;59.15;100571.41;2072676;28;20370;-63
2021/05/25 02:51:11;;;;;;;6.95;5.25;;;;;;;18.41;58.98;100569.53;2072554;28;20429;-64
2021/05/25 02:52:11;;;;;;;7.87;5.27;;;;;;;18.40;58.89;100576.03;2071466;28;20370;-64
2021/05/25 02:53:13;;;;;;;8.27;5.53;;;;;;;18.41;59.07;100577.72;2077439;28;20387;-64
2021/05/25 02:54:13;;;;;;;8.63;5.38;;;;;;;18.40;58.84;100569.69;2072545;28;20026;-63
2021/05/25 02:57:11;;;;;;;7.40;5.13;;;;;;;18.37;59.05;100568.09;2068218;28;20445;-64
2021/05/25 02:58:11;;;;;;;7.23;5.23;;;;;;;18.38;59.11;100567.09;2068144;28;20188;-63
2021/05/25 02:59:12;;;;;;;6.87;5.00;;;;;;;18.39;58.92;100568.81;2064453;28;20022;-64
2021/05/25 03:00:16;;;;;;;9.43;5.40;;;;;;;18.40;59.03;100583.34;2071772;28;20053;-63
2021/05/25 03:01:17;;;;;;;7.65;5.30;;;;;;;18.41;59.05;100579.59;2072936;28;20472;-64
2021/05/25 03:02:19;;;;;;;8.57;5.63;;;;;;;18.39;58.98;100578.88;2076598;28;20033;-64
2021/05/25 03:03:19;;;;;;;;;;;;;;;18.35;59.04;100578.28;2081867;28;20033;-64
2021/05/25 03:04:19;;;;;;;6.53;4.80;;;;;;;18.36;59.18;100580.00;2073319;28;20028;-64
2021/05/25 03:05:24;;;;;;;7.10;5.07;;;;;;;18.36;59.03;100581.88;2073358;28;20105;-64
2021/05/25 03:06:24;;;;;;;6.63;4.80;;;;;;;18.37;59.16;100580.84;2071815;28;20125;-64
2021/05/25 03:07:25;;;;;;;7.67;5.47;;;;;;;18.37;59.08;100587.22;2074653;28;20040;-64
2021/05/25 03:08:27;;;;;;;6.53;4.93;;;;;;;18.38;59.01;100579.88;2063866;28;20058;-64
2021/05/25 03:09:29;;;;;;;8.05;4.70;;;;;;;18.38;59.08;100582.59;2069123;28;20041;-63
2021/05/25 03:10:33;;;;;;;7.63;5.10;;;;;;;18.37;59.07;100578.13;2073101;28;20514;-64
2021/05/25 03:11:35;;;;;;;10.43;5.18;;;;;;;18.38;58.93;100578.00;2067369;28;20034;-64
2021/05/25 03:12:35;;;;;;;7.80;5.68;;;;;;;18.38;58.88;100574.41;2067193;28;20105;-64
2021/05/25 03:13:39;;;;;;;9.03;5.03;;;;;;;18.37;59.04;100579.03;2072926;28;20033;-64
2021/05/25 03:14:39;;;;;;;8.65;4.60;;;;;;;18.37;59.06;100576.28;2072480;28;20040;-63
2021/05/25 03:15:43;;;;;;;6.37;4.90;;;;;;;18.38;58.92;100583.47;2073389;28;20105;-64
2021/05/25 03:16:44;;;;;;;5.13;3.97;;;;;;;18.38;59.02;100583.47;2072587;28;20141;-64
2021/05/25 03:17:45;;;;;;;7.93;5.43;;;;;;;18.37;58.88;100579.03;2075650;28;20038;-64
2021/05/25 03:18:45;;;;;;;8.00;5.47;;;;;;;18.38;59.04;100578.00;2076575;28;20022;-64
2021/05/25 03:19:46;;;;;;;8.13;4.90;;;;;;;18.38;58.97;100582.59;2076255;28;20454;-64
2021/05/25 03:20:48;;;;;;;8.10;5.27;;;;;;;18.38;58.94;100588.06;2077935;28;20026;-64
2021/05/25 03:21:49;;;;;;;8.38;5.45;;;;;;;18.37;58.93;100576.28;2069902;28;20554;-64
2021/05/25 03:22:50;;;;;;;6.93;5.23;;;;;;;18.39;59.12;100584.31;2060107;28;20453;-64
2021/05/25 03:23:51;;;;;;;8.55;5.10;;;;;;;18.38;58.91;100583.47;2064368;28;20094;-64
2021/05/25 03:24:51;;;;;;;7.50;5.13;;;;;;;18.38;58.92;100582.59;2067864;28;20795;-63
2021/05/25 03:25:54;;;;;;;6.83;4.90;;;;;;;18.37;59.06;100584.47;2080048;28;20079;-64
2021/05/25 03:26:55;;;;;;;6.97;4.93;;;;;;;18.38;58.99;100582.59;2072878;28;20026;-64
2021/05/25 03:27:55;;;;;;;8.73;5.30;;;;;;;18.36;58.85;100580.00;2071862;28;20195;-64
2021/05/25 03:28:56;;;;;;;6.53;4.70;;;;;;;18.37;58.91;100570.84;2072146;28;20543;-63
2021/05/25 03:29:56;;;;;;;8.10;4.73;;;;;;;18.37;58.92;100573.56;2072266;28;20037;-64
2021/05/25 03:30:57;;;;;;;9.17;5.20;;;;;;;18.36;59.02;100580.00;2065503;28;20038;-67
2021/05/25 03:31:58;;;;;;;7.70;5.40;;;;;;;18.36;58.86;100582.72;2066355;28;20040;-67
2021/05/25 03:32:58;;;;;;;7.50;4.83;;;;;;;18.38;58.93;100583.47;2074545;28;20068;-67
2021/05/25 03:34:00;;;;;;;7.33;5.33;;;;;;;18.38;58.99;100577.16;2070437;28;20038;-67
2021/05/25 03:35:00;;;;;;;6.13;4.63;;;;;;;18.38;58.90;100582.59;2065949;28;20026;-67
2021/05/25 03:36:01;;;;;;;8.73;5.27;;;;;;;18.37;59.00;100584.47;2070432;28;20030;-67
2021/05/25 03:37:01;;;;;;;5.80;4.53;;;;;;;18.36;59.08;100580.00;2070887;28;20496;-67
2021/05/25 03:38:03;;;;;;;7.80;4.83;;;;;;;18.37;58.91;100586.31;2076038;28;20029;-67
2021/05/25 03:39:05;;;;;;;6.20;4.13;;;;;;;18.37;59.02;100584.47;2078025;28;20028;-67
2021/05/25 03:40:08;;;;;;;8.75;6.07;;;;;;;18.37;59.04;100580.84;2072586;28;20761;-67
2021/05/25 03:41:08;;;;;;;7.90;5.10;;;;;;;18.37;58.90;100587.22;2070122;28;20034;-67
2021/05/25 03:42:09;;;;;;;8.53;4.90;;;;;;;18.38;58.82;100588.06;2069340;28;20583;-67
2021/05/25 03:43:10;;;;;;;7.00;4.87;;;;;;;18.37;58.88;100598.13;2061601;28;20034;-67
2021/05/25 03:44:13;;;;;;;6.57;4.90;;;;;;;18.38;58.76;100593.53;2069401;28;20133;-67
2021/05/25 03:45:15;;;;;;;7.93;4.88;;;;;;;18.37;59.19;100592.66;2073850;28;20145;-66
2021/05/25 03:46:15;;;;;;;;;;;;;;;18.33;58.98;100593.06;2071347;28;20491;-68
2021/05/25 03:47:18;;;;;;;8.40;4.63;;;;;;;18.32;59.07;100586.72;2069159;28;19918;-67
2021/05/25 03:48:18;;;;;;;8.50;4.90;;;;;;;18.33;58.96;100591.19;2067638;28;20030;-67
2021/05/25 03:49:19;;;;;;;7.37;4.87;;;;;;;18.34;59.10;100592.06;2070274;28;20025;-67
2021/05/25 03:50:21;;;;;;;8.63;5.43;;;;;;;18.35;59.08;100591.06;2070340;28;20108;-67
2021/05/25 03:51:22;;;;;;;6.85;4.70;;;;;;;18.35;59.03;100594.66;2069660;28;20433;-67
2021/05/25 03:52:22;;;;;;;6.53;4.43;;;;;;;18.34;58.96;100595.63;2070606;28;20025;-67
2021/05/25 03:53:24;;;;;;;7.80;5.63;;;;;;;18.36;59.03;100607.28;2068486;28;20634;-67
2021/05/25 03:54:34;;;;;;;5.93;4.50;;;;;;;18.34;58.95;100595.63;2070289;28;20030;-67
2021/05/25 03:55:55;;;;;;;5.47;4.22;;;;;;;18.35;58.96;100599.25;2070350;28;20080;-68
2021/05/25 03:56:59;;;;;;;7.82;4.93;;;;;;;18.36;59.00;100593.66;2066912;28;20034;-67
2021/05/25 03:59:22;;;;;;;6.38;4.50;;;;;;;18.34;58.93;100598.38;2069911;28;20034;-67
2021/05/25 04:00:23;;;;;;;6.80;4.93;;;;;;;18.34;59.02;100598.38;2072576;28;20038;-67
2021/05/25 04:01:26;;;;;;;6.83;4.27;;;;;;;18.34;58.94;100592.06;2079186;28;20033;-67
2021/05/25 04:02:26;;;;;;;5.50;4.30;;;;;;;18.34;59.11;100597.50;2075600;28;20460;-67
2021/05/25 04:03:27;;;;;;;6.57;4.80;;;;;;;18.34;58.68;100598.38;2077603;28;20037;-67
2021/05/25 04:04:27;;;;;;;9.10;5.00;;;;;;;18.34;59.08;100598.38;2069777;28;20048;-67
2021/05/25 04:05:28;;;;;;;8.10;5.33;;;;;;;18.34;58.89;100601.09;2072363;28;20132;-67
2021/05/25 04:06:29;;;;;;;6.40;4.47;;;;;;;18.34;59.00;100601.09;2075799;28;20091;-67
2021/05/25 04:07:29;;;;;;;8.00;5.03;;;;;;;18.36;58.83;100603.72;2069844;28;20163;-67
2021/05/25 04:08:30;;;;;;;7.03;4.57;;;;;;;18.35;58.93;100599.25;2074231;28;20036;-67
2021/05/25 04:09:30;;;;;;;7.10;4.47;;;;;;;18.35;58.93;100605.56;2069221;28;20568;-67
2021/05/25 04:10:31;;;;;;;6.87;4.37;;;;;;;18.34;58.75;100609.28;2062611;28;20073;-67
2021/05/25 04:11:32;;;;;;;6.53;4.60;;;;;;;18.35;58.74;100611.03;2060921;28;20512;-67
2021/05/25 04:12:33;;;;;;;6.28;4.85;;;;;;;18.35;58.77;100608.31;2069734;28;20643;-67
2021/05/25 04:13:59;;;;;;;6.83;5.50;;;;;;;18.33;58.85;100613.03;2064225;28;20073;-67
2021/05/25 04:14:59;;;;;;;5.68;4.47;;;;;;;18.34;59.04;100614.75;2069981;28;20113;-67
2021/05/25 04:16:00;;;;;;;7.77;4.40;;;;;;;18.34;58.92;100620.19;2070116;28;20583;-67
2021/05/25 04:17:01;;;;;;;7.65;5.68;;;;;;;18.33;58.97;100618.50;2061900;28;20041;-67
2021/05/25 04:18:02;;;;;;;6.47;4.43;;;;;;;18.33;58.98;100618.50;2066832;28;20040;-67
2021/05/25 04:19:03;;;;;;;5.55;4.43;;;;;;;18.33;58.93;100621.22;2070357;28;20631;-67
2021/05/25 04:20:04;;;;;;;5.97;4.30;;;;;;;18.35;58.75;100621.94;2067281;28;20620;-67
2021/05/25 04:21:04;;;;;;;7.32;4.82;;;;;;;18.34;58.92;100620.19;2063412;28;20049;-67
2021/05/25 04:22:05;;;;;;;7.17;4.80;;;;;;;18.34;58.85;100624.81;2062146;28;20038;-67
2021/05/25 04:23:05;;;;;;;8.50;4.40;;;;;;;18.34;58.76;100625.66;2068277;28;20037;-67
2021/05/25 04:24:07;;;;;;;6.90;4.87;;;;;;;18.34;58.76;100630.25;2069932;28;20070;-67
2021/05/25 04:25:08;;;;;;;7.82;4.75;;;;;;;18.33;58.87;100634.88;2070304;28;20054;-67
2021/05/25 04:26:08;;;;;;;10.35;5.03;;;;;;;18.34;58.98;100631.13;2072665;28;20041;-67
2021/05/25 04:27:09;;;;;;;6.40;4.43;;;;;;;18.35;58.85;100638.31;2078922;28;20079;-66
2021/05/25 04:28:09;;;;;;;9.20;4.50;;;;;;;18.34;58.93;100639.31;2077734;28;20083;-67
2021/05/25 04:29:10;;;;;;;5.60;3.83;;;;;;;18.34;58.92;100641.19;2078988;28;20087;-67
2021/05/25 04:30:11;;;;;;;8.70;5.03;;;;;;;18.34;58.81;100636.59;2077606;28;20424;-66
2021/05/25 04:31:12;;;;;;;8.63;5.30;;;;;;;18.34;58.83;100638.44;2077744;28;20180;-67
2021/05/25 04:32:12;;;;;;;6.40;4.43;;;;;;;18.34;58.87;100638.44;2070653;28;20139;-66
2021/05/25 04:33:13;;;;;;;6.37;4.23;;;;;;;18.33;58.80;100640.31;2072998;28;20072;-67
2021/05/25 04:34:13;;;;;;;6.33;4.97;;;;;;;18.34;58.88;100642.03;2069957;28;20036;-67
2021/05/25 04:35:14;;;;;;;6.57;4.20;;;;;;;18.33;58.93;100634.88;2069533;28;20034;-67
2021/05/25 04:36:17;;;;;;;6.60;4.77;;;;;;;18.33;58.89;100634.88;2078855;28;20060;-67
2021/05/25 04:37:17;;;;;;;7.65;5.10;;;;;;;18.33;58.91;100640.31;2074907;28;20108;-67
2021/05/25 04:38:18;;;;;;;7.30;4.90;;;;;;;18.33;58.76;100640.31;2077642;28;20030;-65
2021/05/25 04:39:19;;;;;;;6.80;4.67;;;;;;;18.33;59.02;100645.78;2061902;28;20458;-67
2021/05/25 04:40:19;;;;;;;6.60;4.17;;;;;;;18.35;58.92;100637.47;2071390;28;20488;-67
2021/05/25 04:41:20;;;;;;;6.47;4.40;;;;;;;18.34;58.86;100642.03;2078786;28;20132;-66
2021/05/25 04:42:20;;;;;;;6.10;3.70;;;;;;;18.34;58.94;100639.31;2084853;28;20035;-67
2021/05/25 04:43:21;;;;;;;7.70;4.67;;;;;;;18.32;58.92;100643.16;2076888;28;20055;-67
2021/05/25 04:44:21;;;;;;;7.53;4.90;;;;;;;18.32;58.79;100644.03;2077454;28;20038;-67
2021/05/25 04:45:22;;;;;;;6.70;4.33;;;;;;;18.31;58.93;100645.03;2078105;28;20078;-67
2021/05/25 04:46:23;;;;;;;6.72;4.22;;;;;;;18.31;58.82;100645.03;2086866;28;20069;-67
2021/05/25 04:47:23;;;;;;;5.87;4.40;;;;;;;18.33;58.64;100650.38;2074947;28;20719;-67
2021/05/25 04:48:23;;;;;;;6.33;4.57;;;;;;;18.32;58.71;100644.03;2075384;28;20110;-67
2021/05/25 04:49:24;;;;;;;7.77;4.40;;;;;;;18.32;58.81;100646.75;2078460;28;20643;-67
2021/05/25 04:50:26;;;;;;;7.90;4.07;;;;;;;18.32;59.06;100649.47;2078043;28;20039;-67